createdAt,value
2018-12-06T00:00:01.042Z,4.90
2018-12-06T00:02:31.850Z,4.90
2018-12-06T00:05:02.180Z,4.90
2018-12-06T00:07:32.494Z,4.90
2018-12-06T00:10:02.681Z,4.90
2018-12-06T00:12:32.966Z,4.80
2018-12-06T00:15:24.214Z,4.80
2018-12-06T00:17:54.859Z,4.80
2018-12-06T00:20:25.144Z,4.70
2018-12-06T00:22:55.686Z,4.70
2018-12-06T00:25:26.074Z,4.70
2018-12-06T00:27:56.611Z,4.70
2018-12-06T00:30:44.486Z,4.60
2018-12-06T00:33:15.114Z,4.60
2018-12-06T00:35:45.333Z,4.60
2018-12-06T00:38:15.582Z,4.60
2018-12-06T00:40:45.892Z,4.50
2018-12-06T00:43:16.559Z,4.60
2018-12-06T00:45:47.225Z,4.60
2018-12-06T00:48:17.672Z,4.60
2018-12-06T00:50:47.996Z,4.60
2018-12-06T00:53:18.650Z,4.70
2018-12-06T00:55:48.954Z,4.60
2018-12-06T00:58:19.584Z,4.60
2018-12-06T01:00:50.376Z,4.50
2018-12-06T01:03:20.902Z,4.50
2018-12-06T01:05:51.595Z,4.50
2018-12-06T01:08:22.138Z,4.40
2018-12-06T01:10:52.764Z,4.40
2018-12-06T01:13:23.611Z,4.40
2018-12-06T01:15:54.146Z,4.40
2018-12-06T01:18:24.609Z,4.40
2018-12-06T01:20:55.148Z,4.40
2018-12-06T01:23:25.585Z,4.40
2018-12-06T01:25:56.279Z,4.40
2018-12-06T01:28:27.025Z,4.40
2018-12-06T01:30:57.694Z,4.40
2018-12-06T01:33:28.571Z,4.40
2018-12-06T01:35:59.218Z,4.50
2018-12-06T01:38:30.068Z,4.50
2018-12-06T01:41:00.655Z,4.50
2018-12-06T01:43:31.176Z,4.50
2018-12-06T01:46:01.865Z,4.50
2018-12-06T01:48:32.641Z,4.50
2018-12-06T01:51:03.894Z,4.60
2018-12-06T01:53:36.153Z,4.70
2018-12-06T01:56:07.120Z,4.80
2018-12-06T01:58:38.233Z,4.80
2018-12-06T02:01:09.146Z,4.80
2018-12-06T02:03:39.886Z,4.90
2018-12-06T02:06:10.952Z,4.90
2018-12-06T02:08:42.061Z,4.90
2018-12-06T02:11:12.677Z,5.00
2018-12-06T02:13:42.956Z,5.00
2018-12-06T02:16:13.175Z,5.00
2018-12-06T02:18:43.546Z,5.10
2018-12-06T02:21:13.990Z,5.10
2018-12-06T02:23:44.286Z,5.10
2018-12-06T02:26:14.435Z,5.10
2018-12-06T02:28:44.918Z,5.10
2018-12-06T02:31:15.445Z,5.10
2018-12-06T02:33:45.904Z,5.20
2018-12-06T02:36:16.299Z,5.20
2018-12-06T02:38:47.108Z,5.10
2018-12-06T02:41:17.491Z,5.10
2018-12-06T02:43:47.697Z,5.10
2018-12-06T02:46:17.984Z,5.20
2018-12-06T02:48:48.126Z,5.20
2018-12-06T02:51:18.541Z,5.20
2018-12-06T02:53:48.820Z,5.20
2018-12-06T02:56:19.108Z,5.20
2018-12-06T02:58:49.617Z,5.20
2018-12-06T03:01:20.567Z,5.20
2018-12-06T03:03:52.560Z,5.30
2018-12-06T03:06:23.466Z,5.30
2018-12-06T03:08:55.525Z,5.40
2018-12-06T03:11:25.949Z,5.40
2018-12-06T03:13:56.095Z,5.40
2018-12-06T03:16:28.012Z,5.40
2018-12-06T03:18:58.509Z,5.40
2018-12-06T03:21:28.981Z,5.40
2018-12-06T03:23:59.461Z,5.40
2018-12-06T03:26:31.790Z,5.40
2018-12-06T03:29:02.655Z,5.40
2018-12-06T03:31:32.841Z,5.40
2018-12-06T03:34:03.258Z,5.40
2018-12-06T03:36:33.643Z,5.40
2018-12-06T03:39:04.099Z,5.40
2018-12-06T03:41:34.765Z,5.40
2018-12-06T03:44:05.205Z,5.40
2018-12-06T03:46:35.670Z,5.40
2018-12-06T03:49:05.937Z,5.40
2018-12-06T03:51:36.212Z,5.30
2018-12-06T03:54:06.459Z,5.30
2018-12-06T03:56:36.733Z,5.30
2018-12-06T03:59:07.009Z,5.30
2018-12-06T04:01:37.399Z,5.30
2018-12-06T04:04:07.976Z,5.30
2018-12-06T04:06:38.655Z,5.30
2018-12-06T04:09:09.175Z,5.30
2018-12-06T04:11:39.623Z,5.20
2018-12-06T04:14:09.968Z,5.20
2018-12-06T04:16:40.186Z,5.20
2018-12-06T04:19:10.569Z,5.20
2018-12-06T04:21:40.928Z,5.20
2018-12-06T04:24:11.591Z,5.20
2018-12-06T04:26:41.917Z,5.20
2018-12-06T04:29:12.732Z,5.30
2018-12-06T04:31:43.327Z,5.30
2018-12-06T04:34:15.092Z,5.40
2018-12-06T04:36:46.029Z,5.40
2018-12-06T04:39:16.880Z,5.50
2018-12-06T04:41:47.714Z,5.50
2018-12-06T04:44:18.057Z,5.60
2018-12-06T04:46:48.411Z,5.50
2018-12-06T04:49:23.076Z,5.50
2018-12-06T04:51:53.709Z,5.60
2018-12-06T04:54:24.221Z,5.60
2018-12-06T04:56:56.481Z,5.60
2018-12-06T04:59:27.124Z,5.60
2018-12-06T05:01:57.818Z,5.70
2018-12-06T05:04:28.037Z,5.60
2018-12-06T05:06:58.493Z,5.70
2018-12-06T05:09:28.662Z,5.70
2018-12-06T05:11:58.828Z,5.70
2018-12-06T05:14:29.631Z,5.80
2018-12-06T05:16:59.878Z,5.80
2018-12-06T05:19:30.304Z,5.80
2018-12-06T05:22:00.500Z,5.80
2018-12-06T05:24:30.887Z,5.90
2018-12-06T05:27:01.586Z,5.80
2018-12-06T05:29:32.676Z,5.90
2018-12-06T05:32:02.914Z,5.90
2018-12-06T05:34:33.649Z,5.90
2018-12-06T05:37:05.704Z,5.90
2018-12-06T05:39:36.344Z,5.90
2018-12-06T05:42:06.667Z,6.00
2018-12-06T05:44:36.875Z,6.00
2018-12-06T05:47:07.100Z,6.10
2018-12-06T05:49:37.496Z,6.00
2018-12-06T05:52:07.869Z,6.00
2018-12-06T05:54:37.986Z,6.10
2018-12-06T05:57:09.016Z,6.10
2018-12-06T05:59:39.546Z,6.10
2018-12-06T06:02:09.937Z,6.10
2018-12-06T06:04:40.454Z,6.10
2018-12-06T06:07:11.268Z,6.10
2018-12-06T06:09:41.349Z,6.20
2018-12-06T06:12:11.515Z,6.20
2018-12-06T06:14:41.814Z,6.20
2018-12-06T06:17:12.076Z,6.30
2018-12-06T06:19:42.505Z,6.30
2018-12-06T06:22:12.694Z,6.40
2018-12-06T06:24:42.788Z,6.40
2018-12-06T06:27:13.109Z,6.40
2018-12-06T06:29:43.807Z,6.40
2018-12-06T06:32:14.628Z,6.40
2018-12-06T06:34:44.989Z,6.40
2018-12-06T06:37:15.187Z,6.50
2018-12-06T06:39:45.731Z,6.50
2018-12-06T06:42:16.112Z,6.50
2018-12-06T06:44:46.775Z,6.50
2018-12-06T06:47:17.528Z,6.50
2018-12-06T06:49:48.396Z,6.60
2018-12-06T06:52:18.506Z,6.60
2018-12-06T06:54:49.025Z,6.60
2018-12-06T06:57:19.776Z,6.50
2018-12-06T06:59:49.986Z,6.60
2018-12-06T08:53:16.318Z,7.30
2018-12-06T08:55:47.616Z,7.30
2018-12-06T08:58:18.040Z,7.30
2018-12-06T09:00:48.388Z,7.30
2018-12-06T09:03:19.204Z,7.30
2018-12-06T09:05:49.598Z,7.40
2018-12-06T09:08:20.486Z,7.40
2018-12-06T09:10:51.956Z,7.30
2018-12-06T09:13:21.606Z,7.40
2018-12-06T09:15:51.887Z,7.40
2018-12-06T09:18:22.102Z,7.40
2018-12-06T09:20:52.583Z,7.40
2018-12-06T09:23:22.626Z,7.40
2018-12-06T09:25:53.028Z,7.40
2018-12-06T09:28:23.425Z,7.40
2018-12-06T09:31:00.886Z,7.40
2018-12-06T09:33:25.132Z,7.40
2018-12-06T09:35:55.706Z,7.40
2018-12-06T09:38:26.493Z,7.40
2018-12-06T09:40:56.832Z,7.40
2018-12-06T09:43:27.226Z,7.40
2018-12-06T09:45:57.953Z,7.50
2018-12-06T09:48:28.274Z,7.50
2018-12-06T09:50:58.995Z,7.50
2018-12-06T09:53:29.564Z,7.50
2018-12-06T09:56:00.646Z,7.50
2018-12-06T09:58:31.209Z,7.50
2018-12-06T10:01:02.564Z,7.50
2018-12-06T10:03:32.913Z,7.50
2018-12-06T10:06:03.385Z,7.60
2018-12-06T10:08:33.662Z,7.60
2018-12-06T10:11:04.138Z,7.60
2018-12-06T10:13:34.787Z,7.70
2018-12-06T10:16:05.805Z,7.80
2018-12-06T10:18:36.420Z,7.80
2018-12-06T10:21:07.131Z,7.80
2018-12-06T10:23:39.293Z,7.90
2018-12-06T10:26:07.995Z,7.90
2018-12-06T10:28:38.513Z,7.90
2018-12-06T10:31:08.913Z,8.00
2018-12-06T10:33:39.381Z,8.00
2018-12-06T10:36:10.034Z,8.00
2018-12-06T10:38:40.312Z,8.00
2018-12-06T10:41:10.951Z,8.10
2018-12-06T10:43:41.593Z,8.20
2018-12-06T10:46:12.839Z,8.20
2018-12-06T10:48:43.680Z,8.20
2018-12-06T10:51:30.538Z,8.20
2018-12-06T10:54:01.046Z,8.20
2018-12-06T10:56:31.579Z,8.20
2018-12-06T10:59:01.970Z,8.20
2018-12-06T11:01:38.074Z,8.10
2018-12-06T11:04:08.514Z,8.10
2018-12-06T11:06:38.980Z,8.00
2018-12-06T11:09:09.990Z,8.10
2018-12-06T11:11:40.529Z,8.00
2018-12-06T11:14:10.992Z,8.10
2018-12-06T11:16:41.399Z,8.00
2018-12-06T11:19:11.843Z,8.00
2018-12-06T11:21:42.217Z,7.90
2018-12-06T11:24:12.824Z,7.90
2018-12-06T11:26:43.180Z,7.90
2018-12-06T11:29:13.486Z,7.90
2018-12-06T11:31:44.431Z,7.90
2018-12-06T11:34:15.304Z,7.90
2018-12-06T11:36:46.066Z,7.90
2018-12-06T11:42:25.927Z,7.90
2018-12-06T11:45:06.436Z,8.00
2018-12-06T11:47:37.097Z,8.10
2018-12-06T11:50:13.699Z,8.10
2018-12-06T12:02:12.923Z,7.90
2018-12-06T12:07:53.096Z,7.90
2018-12-06T12:10:23.471Z,8.00
2018-12-06T12:12:53.897Z,7.90
2018-12-06T12:15:24.235Z,8.00
2018-12-06T12:17:54.742Z,7.90
2018-12-06T12:20:25.240Z,7.90
2018-12-06T12:22:55.539Z,7.90
2018-12-06T12:25:26.130Z,7.90
2018-12-06T12:27:56.645Z,7.90
2018-12-06T12:34:00.063Z,8.00
2018-12-06T12:36:30.767Z,7.90
2018-12-06T12:39:01.867Z,7.90
2018-12-06T12:41:32.797Z,8.00
2018-12-06T12:47:12.537Z,8.10
2018-12-06T12:49:42.988Z,8.10
2018-12-06T12:52:36.434Z,8.20
2018-12-06T12:58:16.887Z,8.30
2018-12-06T13:00:47.142Z,8.60
2018-12-06T13:03:17.364Z,8.70
2018-12-06T13:05:47.900Z,8.60
2018-12-06T13:08:18.401Z,8.60
2018-12-06T13:10:48.500Z,8.80
2018-12-06T13:13:18.656Z,9.20
2018-12-06T13:15:49.339Z,9.60
2018-12-06T13:18:19.823Z,10.10
2018-12-06T13:20:55.936Z,10.10
2018-12-06T13:23:26.915Z,10.20
2018-12-06T13:25:57.384Z,10.20
2018-12-06T13:28:28.141Z,10.10
2018-12-06T13:36:36.184Z,9.70
2018-12-06T14:00:41.109Z,9.30
2018-12-06T14:28:47.344Z,8.60
2018-12-06T15:15:57.129Z,7.00
